METAR Analyzer

一覧表示

Hello, Guest. (Login)

CYYZ/YYZ  -  トロント・ピアソン

観測日時
2021-08-05 00:00 (UTC) (86分前)
気温
25
露点
10
湿数
15
相対湿度
38.8%
QNH
1019.3hPa
推定現地気圧
998.6hPa
推定海面気圧
1018.6hPa
体感温度
19.8
(無風時)
22.5
HI
24.6
気温前日比
データなし
体感温度前日比
データなし
HI前日比
データなし
水平視程
>15SM
鉛直視程
データなし
雲底高度
No dense clouds
V/I
VMC (VFR)
RVR
No RVR data
卓越風
2kt from VRB
ガスト
No gust
降水
報告なし
その他の天気
報告なし
少しの(1/8) 高積雲 @ 18000ft AGL

CYYZ 050000Z VRB02KT 15SM FEW180 25/10 A3010 RMK AC1 AC TR SLP192 DENSITY ALT 1600FT

CYOW/YOW  -  オタワ・マクドナルド・カルティエ

観測日時
2021-08-05 01:00 (UTC) (26分前)
気温
21
露点
17
湿数
4
相対湿度
77.9%
QNH
1019.6hPa
推定現地気圧
1005.8hPa
推定海面気圧
1019.3hPa
体感温度
14.9
(無風時)
21.6
HI
21.2
気温前日比
±0
体感温度前日比
+0.2
HI前日比
+0.3
水平視程
>15SM
鉛直視程
データなし
雲底高度
No dense clouds
V/I
VMC (VFR)
RVR
No RVR data
卓越風
6kt from 150°
ガスト
No gust
降水
報告なし
その他の天気
報告なし
少しの(1/8) 巻雲 @ 25000ft AGL

CYOW 050100Z 15006KT 15SM FEW250 21/17 A3011 RMK CI1 CI TR SLP197 DENSITY ALT 1000FT

CYUL/YUL  -  モントリオール・ピエール・エリオット・トルドー

観測日時
2021-08-05 01:00 (UTC) (26分前)
気温
22
露点
15
湿数
7
相対湿度
64.5%
QNH
1019.6hPa
推定現地気圧
1015.3hPa
推定海面気圧
1019.5hPa
体感温度
17.3
(無風時)
21.8
HI
21.9
気温前日比
-1
体感温度前日比
+1.8
HI前日比
-1
水平視程
>15SM
鉛直視程
データなし
雲底高度
No dense clouds
V/I
VMC (VFR)
RVR
No RVR data
卓越風
3kt from 250°
ガスト
No gust
降水
報告なし
その他の天気
報告なし
少しの(1/8) 巻雲 @ 25000ft AGL

CYUL 050100Z 25003KT 15SM FEW250 22/15 A3011 RMK CI1 CI TR SLP198 DENSITY ALT 800FT

CYVR/YVR  -  バンクーバー

観測日時
2021-08-05 01:00 (UTC) (26分前)
気温
24
露点
17
湿数
7
相対湿度
64.9%
QNH
1012.5hPa
推定現地気圧
1012.0hPa
推定海面気圧
1012.5hPa
体感温度
17.8
(無風時)
23.3
HI
24.2
気温前日比
±0
体感温度前日比
-0.4
HI前日比
-0.1
水平視程
>30SM
鉛直視程
データなし
雲底高度
No dense clouds
V/I
VMC (VFR)
RVR
No RVR data
卓越風
7kt from 230°
ガスト
No gust
降水
報告なし
その他の天気
報告なし
少しの(1/8) 積雲 @ 3000ft AGL / 少しの(1/8) 高積雲 @ 18000ft AGL / 少しの(1/8) 巻雲 @ 23000ft AGL

CYVR 050100Z 23007KT 30SM FEW030 FEW180 FEW230 24/17 A2990 RMK CU1AC1CI1 CU TR AC TR CI TR SLP126 DENSITY ALT 1200FT

KJFK/JFK  -  ジョン・F・ケネディ

観測日時
2021-08-05 00:51 (UTC) (35分前)
気温
21.7
露点
13.9
湿数
7.8
相対湿度
61.2%
QNH
1019.6hPa
推定現地気圧
1019.1hPa
推定海面気圧
1019.6hPa
体感温度
14.6
(無風時)
21.4
HI
21.5
気温前日比
+0.6
体感温度前日比
-0.7
HI前日比
+0.4
水平視程
>10SM
鉛直視程
データなし
雲底高度
4300ft AGL
V/I
VMC (VFR)
RVR
No RVR data
卓越風
8kt from 60°
ガスト
No gust
降水
報告なし
その他の天気
報告なし
少しの雲 @ 3000ft AGL / 全天を覆う雲 @ 4300ft AGL

KJFK 050051Z 06008KT 10SM FEW030 OVC043 22/14 A3011 RMK AO2 SLP197 T02170139

KLGA/LGA  -  ラガーディア

観測日時
2021-08-05 00:51 (UTC) (35分前)
気温
22.2
露点
13.3
湿数
8.9
相対湿度
57.1%
QNH
1019.6hPa
推定現地気圧
1018.9hPa
推定海面気圧
1019.6hPa
体感温度
14.8
(無風時)
21.6
HI
22
気温前日比
-1.7
体感温度前日比
-2.9
HI前日比
-1.6
水平視程
>10SM
鉛直視程
データなし
雲底高度
6500ft AGL
V/I
VMC (VFR)
RVR
No RVR data
卓越風
9kt from 60°
ガスト
No gust
降水
報告なし
その他の天気
報告なし
少しの雲 @ 2700ft AGL / 全天を覆う雲 @ 6500ft AGL

KLGA 050051Z 06009KT 10SM FEW027 OVC065 22/13 A3011 RMK AO2 SLP196 T02220133

KEWR/EWR  -  ニューアーク・リバティー

観測日時
2021-08-05 00:51 (UTC) (35分前)
気温
22.8
露点
16.7
湿数
6.1
相対湿度
68.5%
QNH
1019.3hPa
推定現地気圧
1018.7hPa
推定海面気圧
1019.3hPa
体感温度
22.6
(無風時)
22.6
HI
22.9
気温前日比
-1.1
体感温度前日比
+4.4
HI前日比
-0.8
水平視程
>10SM
鉛直視程
データなし
雲底高度
4000ft AGL
V/I
VMC (VFR)
RVR
No RVR data
卓越風
静穏
ガスト
No gust
降水
報告なし
その他の天気
報告なし
散在する雲 @ 2900ft AGL / 隙間のある雲 @ 4000ft AGL / 全天を覆う雲 @ 7000ft AGL

KEWR 050051Z 00000KT 10SM SCT029 BKN040 OVC070 23/17 A3010 RMK AO2 SLP193 T02280167 $

KIAD/IAD  -  ワシントン・ダレス

観測日時
2021-08-05 00:52 (UTC) (34分前)
気温
22.8
露点
13.3
湿数
9.5
相対湿度
55%
QNH
1019.0hPa
推定現地気圧
1007.6hPa
推定海面気圧
1018.7hPa
体感温度
17.2
(無風時)
21.9
HI
22.6
気温前日比
+0.6
体感温度前日比
+0.3
HI前日比
+0.5
水平視程
>10SM
鉛直視程
データなし
雲底高度
No dense clouds
V/I
VMC (VFR)
RVR
No RVR data
卓越風
4kt from 120°
ガスト
No gust
降水
報告なし
その他の天気
報告なし
少しの雲 @ 25000ft AGL

KIAD 050052Z 12004KT 10SM FEW250 23/13 A3009 RMK AO2 SLP186 T02280133

KDTW/DTW  -  デトロイト・メトロポリタン・ウェイン・カウンティ